Time;durP1;ratioP1;P1;durP2;ratioP2;P2;SDS_P1;SDS_P2;PMS_P1;PMS_P2;Temp;Humidity;BMP_temperature;BMP_pressure;BME280_temperature;BME280_humidity;BME280_pressure;Samples;Min_cycle;Max_cycle;Signal;HPM_P1;HPM_P2
2023/05/18 00:01:09;;;;;;;0.40;0.40;;;;;;;8.05;72.53;101295.38;5129312;28;20019;-62
2023/05/18 00:03:34;;;;;;;0.40;0.40;;;;;;;8.07;72.92;101300.56;5129512;28;20028;-62
2023/05/18 00:06:03;;;;;;;0.40;0.40;;;;;;;8.09;72.89;101309.25;5129103;28;20031;-62
2023/05/18 00:08:33;;;;;;;0.40;0.40;;;;;;;8.06;73.09;101299.72;5110754;28;20102;-62
2023/05/18 00:10:59;;;;;;;0.40;0.40;;;;;;;8.05;73.42;101302.28;5129234;28;20027;-63
2023/05/18 00:13:25;;;;;;;0.40;0.40;;;;;;;8.12;72.92;101309.28;5128955;28;20032;-62
2023/05/18 00:15:50;;;;;;;0.40;0.40;;;;;;;8.15;73.02;101308.47;5129042;28;20015;-63
2023/05/18 00:18:15;;;;;;;0.40;0.40;;;;;;;8.13;73.20;101311.03;5110647;28;20030;-63
2023/05/18 00:20:42;;;;;;;0.40;0.40;;;;;;;8.18;73.26;101311.97;5128909;28;20023;-62
2023/05/18 00:23:09;;;;;;;0.40;0.40;;;;;;;8.22;73.13;101315.50;5128898;28;20029;-63
2023/05/18 00:25:35;;;;;;;0.40;0.40;;;;;;;8.17;73.08;101311.94;5128886;28;20020;-62
2023/05/18 00:28:00;;;;;;;0.40;0.40;;;;;;;8.20;73.23;101312.00;5128700;28;20019;-62
2023/05/18 00:30:26;;;;;;;0.40;0.40;;;;;;;8.30;72.98;101326.84;5128997;28;20019;-62
2023/05/18 00:32:51;;;;;;;0.40;0.40;;;;;;;8.30;72.83;101321.66;5128770;28;20051;-63
2023/05/18 00:35:16;;;;;;;1.80;1.45;;;;;;;8.26;72.90;101319.00;5128563;28;20440;-63
2023/05/18 00:37:42;;;;;;;0.40;0.40;;;;;;;8.29;73.12;101324.22;5128278;28;20020;-64
2023/05/18 00:40:08;;;;;;;0.40;0.40;;;;;;;8.29;72.97;101321.66;5110076;28;20451;-63
2023/05/18 00:42:33;;;;;;;0.60;0.60;;;;;;;8.34;72.63;101319.97;5128799;28;20109;-63
2023/05/18 00:44:59;;;;;;;0.40;0.40;;;;;;;8.34;72.51;101327.72;5128617;28;20016;-63
2023/05/18 00:47:26;;;;;;;0.30;0.30;;;;;;;8.39;72.45;101322.63;5128040;28;20020;-62
2023/05/18 00:49:51;;;;;;;0.50;0.50;;;;;;;8.36;72.85;101318.28;5128568;28;20012;-61
2023/05/18 00:52:17;;;;;;;0.40;0.40;;;;;;;8.38;72.71;101326.06;5128111;28;20034;-63
2023/05/18 00:54:42;;;;;;;0.35;0.35;;;;;;;8.44;72.55;101328.75;5128436;28;20019;-63
2023/05/18 00:57:08;;;;;;;4.55;4.13;;;;;;;8.47;72.34;101331.38;5128248;28;20024;-62
2023/05/18 00:59:34;;;;;;;0.40;0.40;;;;;;;8.49;72.01;101334.88;5128219;28;20038;-62
2023/05/18 01:02:00;;;;;;;0.40;0.40;;;;;;;8.47;71.74;101330.50;5127913;28;20049;-64
2023/05/18 01:04:26;;;;;;;0.40;0.40;;;;;;;8.50;71.78;101330.59;5128370;28;20411;-64
2023/05/18 01:06:55;;;;;;;0.40;0.40;;;;;;;8.52;71.64;101339.22;5127480;28;20040;-63
2023/05/18 01:09:21;;;;;;;1.15;1.15;;;;;;;8.48;71.88;101335.72;5128041;28;20015;-63
2023/05/18 01:11:47;;;;;;;0.40;0.40;;;;;;;8.50;72.04;101328.84;5127966;28;20560;-62
2023/05/18 01:14:38;;;;;;;0.40;0.40;;;;;;;8.49;72.37;101339.19;5109568;28;20027;-63
2023/05/18 01:17:28;;;;;;;0.40;0.40;;;;;;;8.46;72.70;101339.13;5118528;28;20042;-63
2023/05/18 01:20:01;;;;;;;0.40;0.40;;;;;;;8.43;72.77;101340.81;5127909;28;20024;-62
2023/05/18 01:22:42;;;;;;;0.40;0.40;;;;;;;8.40;72.98;101345.09;5127666;28;20091;-63
2023/05/18 01:25:21;;;;;;;3.15;3.00;;;;;;;8.40;72.98;101335.59;5127886;28;20468;-62
2023/05/18 01:27:48;;;;;;;0.40;0.40;;;;;;;8.35;72.58;101334.69;5127766;28;20016;-63
2023/05/18 01:30:18;;;;;;;0.40;0.40;;;;;;;8.33;72.48;101341.53;5109125;28;20026;-62
2023/05/18 01:32:45;;;;;;;0.40;0.40;;;;;;;8.30;72.36;101336.31;5127654;28;20026;-62
2023/05/18 01:35:11;;;;;;;0.40;0.40;;;;;;;8.31;72.38;101349.28;5127542;28;20026;-62
2023/05/18 01:37:36;;;;;;;0.40;0.40;;;;;;;8.27;72.14;101344.03;5108879;28;20087;-63
2023/05/18 01:40:04;;;;;;;0.40;0.40;;;;;;;8.28;71.93;101348.34;5127260;28;20391;-62
2023/05/18 01:42:36;;;;;;;0.40;0.40;;;;;;;8.23;72.28;101355.16;5109000;28;20050;-64
2023/05/18 01:45:08;;;;;;;0.40;0.40;;;;;;;8.19;72.22;101360.28;5127368;28;20020;-62
2023/05/18 01:47:36;;;;;;;0.40;0.40;;;;;;;8.18;71.86;101363.72;5127148;28;20077;-63
2023/05/18 01:50:19;;;;;;;0.40;0.40;;;;;;;8.22;71.72;101362.06;5127311;28;20028;-61
2023/05/18 01:53:13;;;;;;;0.40;0.40;;;;;;;8.10;72.01;101365.28;5127064;28;20031;-62
2023/05/18 01:55:40;;;;;;;0.40;0.40;;;;;;;7.91;72.57;101367.56;5123980;28;20088;-62
2023/05/18 01:58:08;;;;;;;0.40;0.40;;;;;;;7.75;72.80;101370.69;5127118;28;20023;-62
2023/05/18 02:00:35;;;;;;;1.20;1.20;;;;;;;7.60;72.86;101367.00;5126933;28;20030;-62
2023/05/18 02:03:00;;;;;;;0.40;0.40;;;;;;;7.51;73.26;101366.78;5127029;28;20031;-62
2023/05/18 02:05:26;;;;;;;0.40;0.40;;;;;;;7.44;73.60;101369.25;5127011;28;20070;-63
2023/05/18 02:07:51;;;;;;;1.67;1.58;;;;;;;7.26;73.90;101372.34;5126673;28;20344;-63
2023/05/18 02:10:16;;;;;;;0.40;0.40;;;;;;;7.04;74.13;101373.59;5126899;28;20019;-62
2023/05/18 02:12:42;;;;;;;0.40;0.40;;;;;;;6.95;74.15;101371.66;5126143;28;20026;-63
2023/05/18 02:15:08;;;;;;;0.40;0.40;;;;;;;6.89;73.98;101363.78;5126824;28;20115;-62
2023/05/18 02:17:36;;;;;;;0.40;0.40;;;;;;;6.85;73.84;101364.56;5126595;28;20066;-62
2023/05/18 02:20:06;;;;;;;0.40;0.40;;;;;;;6.82;74.13;101371.41;5126863;28;20383;-63
2023/05/18 02:22:32;;;;;;;34.22;3.42;;;;;;;6.75;74.13;101373.81;5126193;28;20023;-63
2023/05/18 02:24:57;;;;;;;0.40;0.40;;;;;;;6.72;73.99;101381.47;5126618;28;20261;-63
2023/05/18 02:27:22;;;;;;;0.40;0.40;;;;;;;6.66;73.91;101372.75;5126438;28;20023;-62
2023/05/18 02:29:48;;;;;;;0.40;0.40;;;;;;;6.60;73.83;101364.88;5126247;28;20051;-63
2023/05/18 02:32:13;;;;;;;0.50;0.50;;;;;;;6.59;73.72;101367.41;5126604;28;20475;-62
2023/05/18 02:34:40;;;;;;;0.40;0.40;;;;;;;6.56;73.71;101379.44;5126486;28;20023;-63
2023/05/18 02:37:06;;;;;;;0.40;0.40;;;;;;;6.52;73.97;101377.59;5126170;28;20028;-63
2023/05/18 02:39:32;;;;;;;0.40;0.40;;;;;;;6.50;73.96;101371.50;5125939;28;20046;-62
2023/05/18 02:41:58;;;;;;;0.40;0.40;;;;;;;6.50;73.90;101378.41;5126119;28;20480;-62
2023/05/18 02:44:24;;;;;;;0.40;0.40;;;;;;;6.51;73.76;101374.97;5107818;28;20100;-63
2023/05/18 02:46:49;;;;;;;0.40;0.40;;;;;;;6.51;73.74;101378.44;5126304;28;20028;-62
2023/05/18 02:49:14;;;;;;;0.55;0.55;;;;;;;6.51;74.02;101368.13;5126117;28;20044;-61
2023/05/18 02:51:40;;;;;;;0.40;0.40;;;;;;;6.44;74.28;101385.16;5125918;28;20026;-62
2023/05/18 02:54:05;;;;;;;0.40;0.40;;;;;;;6.41;74.22;101385.06;5126084;28;20111;-63
2023/05/18 02:56:31;;;;;;;0.40;0.40;;;;;;;6.37;74.68;101380.69;5126185;28;20024;-63
2023/05/18 02:58:57;;;;;;;0.40;0.40;;;;;;;6.34;74.88;101388.34;5125787;28;20032;-62
2023/05/18 03:01:26;;;;;;;0.40;0.40;;;;;;;6.29;75.20;101383.03;5126056;28;20028;-62
2023/05/18 03:03:53;;;;;;;0.40;0.40;;;;;;;6.23;75.33;101384.63;5107400;28;20053;-63
2023/05/18 03:06:25;;;;;;;0.40;0.40;;;;;;;6.22;75.69;101377.69;5125755;28;20027;-62
2023/05/18 03:08:50;;;;;;;;;;;;;;;6.37;76.00;101395.28;5126429;28;20046;-63
2023/05/18 03:11:16;;;;;;;0.80;0.80;;;;;;;6.41;76.15;101394.50;5107485;28;19907;-63
2023/05/18 03:13:42;;;;;;;0.45;0.45;;;;;;;6.45;76.08;101393.75;5125884;28;20019;-65
2023/05/18 03:16:07;;;;;;;0.65;0.65;;;;;;;6.54;76.45;101387.94;5125859;28;20019;-63
2023/05/18 03:18:33;;;;;;;0.40;0.40;;;;;;;6.75;76.52;101390.16;5125618;28;20030;-62
2023/05/18 03:21:00;;;;;;;0.40;0.40;;;;;;;6.87;76.69;101370.66;5125362;28;20028;-62
2023/05/18 03:23:26;;;;;;;0.50;0.50;;;;;;;7.15;76.88;101392.78;5107580;28;20185;-62
2023/05/18 03:25:53;;;;;;;0.40;0.40;;;;;;;7.43;77.15;101395.06;5125426;28;20031;-63
2023/05/18 03:28:19;;;;;;;2.88;2.67;;;;;;;7.71;76.95;101394.75;5107234;28;20035;-62
2023/05/18 03:30:45;;;;;;;0.75;0.75;;;;;;;7.94;77.12;101388.28;5125712;28;20020;-64
2023/05/18 03:33:10;;;;;;;0.40;0.40;;;;;;;8.21;77.05;101393.06;5125628;28;20030;-62
2023/05/18 03:35:39;;;;;;;0.40;0.40;;;;;;;8.43;76.92;101389.97;5125570;28;20019;-62
2023/05/18 03:38:05;;;;;;;0.40;0.40;;;;;;;8.75;77.01;101396.56;5107695;28;20051;-63
2023/05/18 03:40:30;;;;;;;0.32;0.32;;;;;;;9.06;76.36;101403.91;5125450;28;20044;-63
2023/05/18 03:42:56;;;;;;;0.40;0.40;;;;;;;9.18;74.54;101401.47;5125436;28;20468;-62
2023/05/18 03:45:22;;;;;;;0.40;0.40;;;;;;;9.15;72.84;101404.03;5107194;28;20019;-63
2023/05/18 03:47:47;;;;;;;0.40;0.40;;;;;;;9.13;73.58;101402.28;5125229;28;20384;-63
2023/05/18 03:50:13;;;;;;;1.00;1.00;;;;;;;9.26;74.55;101383.47;5107186;28;20015;-63
2023/05/18 03:52:39;;;;;;;0.40;0.40;;;;;;;9.73;74.54;101406.47;5125267;28;20024;-63
2023/05/18 03:55:04;;;;;;;0.40;0.40;;;;;;;10.11;74.43;101403.38;5125307;28;20030;-62
2023/05/18 03:57:31;;;;;;;0.40;0.40;;;;;;;10.50;73.97;101403.75;5125202;28;20106;-62
2023/05/18 03:59:57;;;;;;;0.30;0.30;;;;;;;10.94;74.47;101398.88;5125368;28;20028;-62
2023/05/18 04:02:23;;;;;;;0.50;0.50;;;;;;;11.42;72.81;101402.56;5125525;28;20024;-63
2023/05/18 04:04:48;;;;;;;0.40;0.40;;;;;;;11.74;72.01;101401.81;5125397;28;20560;-62
2023/05/18 04:07:20;;;;;;;0.40;0.40;;;;;;;12.03;71.75;101406.19;5125209;28;20035;-62
2023/05/18 04:09:47;;;;;;;0.65;0.65;;;;;;;12.37;71.63;101402.78;5125063;28;20024;-62
2023/05/18 04:12:12;;;;;;;0.30;0.30;;;;;;;12.74;70.69;101408.00;5125631;28;20016;-63
2023/05/18 04:14:40;;;;;;;0.30;0.30;;;;;;;13.07;70.03;101412.25;5125295;28;20055;-63
2023/05/18 04:17:06;;;;;;;0.30;0.30;;;;;;;13.34;69.42;101411.31;5125024;28;20023;-62
2023/05/18 04:19:33;;;;;;;0.30;0.30;;;;;;;13.78;69.68;101420.72;5125066;28;20110;-63
2023/05/18 04:21:59;;;;;;;0.30;0.30;;;;;;;14.23;68.64;101423.03;5124871;28;20030;-62
2023/05/18 04:24:25;;;;;;;0.30;0.30;;;;;;;14.38;64.71;101422.03;5125185;28;20023;-62
2023/05/18 04:26:51;;;;;;;0.30;0.30;;;;;;;14.13;60.52;101423.13;5125259;28;20042;-63
2023/05/18 04:29:17;;;;;;;0.47;0.47;;;;;;;13.73;60.71;101423.34;5125101;28;20079;-62
2023/05/18 04:31:46;;;;;;;0.30;0.30;;;;;;;13.56;60.79;101426.88;5125024;28;20102;-62
2023/05/18 04:34:12;;;;;;;0.40;0.40;;;;;;;13.62;61.55;101421.69;5125028;28;20489;-62
2023/05/18 04:36:39;;;;;;;0.30;0.30;;;;;;;13.84;60.46;101431.13;5126278;28;20054;-62
2023/05/18 04:39:06;;;;;;;0.30;0.30;;;;;;;13.86;60.23;101437.19;5128740;28;20024;-62
2023/05/18 04:41:33;;;;;;;0.30;0.30;;;;;;;14.02;61.78;101440.59;5128601;28;20048;-72
2023/05/18 04:43:59;;;;;;;0.57;0.57;;;;;;;14.50;62.11;101442.84;5128633;28;20024;-66
2023/05/18 04:46:25;;;;;;;0.30;0.30;;;;;;;15.13;60.54;101437.06;5128989;28;20028;-65
2023/05/18 04:48:52;;;;;;;1.05;1.05;;;;;;;15.45;58.00;101437.56;5109987;28;20015;-66
2023/05/18 04:51:20;;;;;;;0.30;0.30;;;;;;;15.42;55.60;101442.84;5128348;28;20629;-65
2023/05/18 04:53:48;;;;;;;0.30;0.30;;;;;;;15.03;54.92;101445.91;5128422;28;20113;-65
2023/05/18 04:56:16;;;;;;;0.47;0.47;;;;;;;15.03;57.65;101446.75;5128557;28;20048;-65
2023/05/18 04:58:44;;;;;;;0.85;0.85;;;;;;;15.61;58.70;101453.94;5128363;28;20024;-66
2023/05/18 05:01:11;;;;;;;0.20;0.20;;;;;;;16.49;58.13;101450.97;5128336;28;20032;-65
2023/05/18 05:03:36;;;;;;;0.40;0.40;;;;;;;17.21;57.22;101444.47;5128512;28;20023;-66
2023/05/18 05:06:02;;;;;;;0.30;0.30;;;;;;;17.64;54.87;101444.47;5127858;28;20031;-66
2023/05/18 05:08:27;;;;;;;0.30;0.30;;;;;;;17.83;55.40;101451.06;5128328;28;20045;-66
2023/05/18 05:10:53;;;;;;;0.30;0.30;;;;;;;18.29;54.78;101445.66;5128070;28;20032;-65
2023/05/18 05:13:18;;;;;;;0.75;0.75;;;;;;;18.76;54.46;101451.53;5128100;28;20074;-65
2023/05/18 05:15:43;;;;;;;0.20;0.20;;;;;;;19.13;53.46;101447.94;5128148;28;20026;-65
2023/05/18 05:18:09;;;;;;;0.30;0.30;;;;;;;19.52;52.31;101454.72;5127640;28;20473;-64
2023/05/18 05:20:35;;;;;;;0.20;0.20;;;;;;;19.99;49.46;101455.09;5128092;28;20032;-64
2023/05/18 05:23:00;;;;;;;0.28;0.28;;;;;;;20.65;50.66;101464.44;5127827;28;20027;-65
2023/05/18 05:25:25;;;;;;;0.20;0.20;;;;;;;20.74;48.35;101464.13;5127748;28;20016;-67
2023/05/18 05:27:51;;;;;;;0.20;0.20;;;;;;;20.97;46.99;101470.41;5127702;28;20020;-66
2023/05/18 05:30:16;;;;;;;0.20;0.20;;;;;;;21.10;46.28;101469.97;5127875;28;20020;-68
2023/05/18 05:32:42;;;;;;;0.20;0.20;;;;;;;21.19;47.25;101472.28;5127661;28;20026;-68
2023/05/18 05:35:07;;;;;;;0.20;0.20;;;;;;;21.29;43.27;101468.38;5127684;28;20019;-67
2023/05/18 05:37:33;;;;;;;0.20;0.20;;;;;;;21.14;42.56;101474.22;5127250;28;20387;-68
2023/05/18 05:39:59;;;;;;;3.85;2.58;;;;;;;20.86;42.14;101478.69;5127354;28;20044;-69
2023/05/18 05:42:24;;;;;;;0.32;0.32;;;;;;;20.79;42.47;101482.44;5127377;28;20286;-68
2023/05/18 05:44:50;;;;;;;0.20;0.20;;;;;;;20.90;43.05;101488.22;5127638;28;20357;-69
2023/05/18 05:47:15;;;;;;;0.43;0.43;;;;;;;20.90;42.72;101488.22;5126769;28;20031;-68
2023/05/18 05:49:40;;;;;;;0.20;0.20;;;;;;;20.69;42.04;101492.44;5126832;28;20440;-68
2023/05/18 05:52:06;;;;;;;0.20;0.20;;;;;;;20.55;41.40;101496.41;5126977;28;20381;-68
2023/05/18 05:54:31;;;;;;;0.43;0.43;;;;;;;20.27;41.73;101483.28;5127245;28;20020;-69
2023/05/18 05:56:57;;;;;;;0.20;0.20;;;;;;;20.70;42.53;101504.72;5127132;28;20023;-68
2023/05/18 05:59:22;;;;;;;1.63;1.52;;;;;;;20.98;42.05;101509.09;5108561;28;20035;-68
2023/05/18 06:01:47;;;;;;;30.80;2.55;;;;;;;21.28;41.55;101516.81;5127206;28;20024;-68
2023/05/18 06:04:14;;;;;;;0.10;0.10;;;;;;;21.32;41.67;101522.88;5127136;28;20019;-67
2023/05/18 06:06:40;;;;;;;1.00;1.00;;;;;;;21.49;40.66;101531.94;5126822;28;20024;-69
2023/05/18 06:09:06;;;;;;;0.20;0.20;;;;;;;21.74;40.70;101529.25;5108446;28;20019;-67
2023/05/18 06:11:32;;;;;;;0.68;0.68;;;;;;;21.30;40.58;101540.53;5127016;28;20044;-68
2023/05/18 06:13:57;;;;;;;0.20;0.20;;;;;;;20.86;40.68;101536.75;5126849;28;20030;-68
2023/05/18 06:16:24;;;;;;;0.20;0.20;;;;;;;20.87;41.69;101542.88;5108379;28;20023;-68
2023/05/18 06:18:50;;;;;;;0.50;0.50;;;;;;;20.83;41.27;101547.38;5126442;28;20024;-68
2023/05/18 06:21:15;;;;;;;0.20;0.20;;;;;;;20.88;40.85;101544.59;5126729;28;20027;-68
2023/05/18 06:23:42;;;;;;;0.25;0.25;;;;;;;20.80;40.36;101548.34;5127138;28;20062;-68
2023/05/18 06:26:07;;;;;;;0.20;0.20;;;;;;;20.75;41.07;101555.53;5126715;28;20020;-67
2023/05/18 06:28:32;;;;;;;0.20;0.20;;;;;;;20.88;39.89;101550.72;5126498;28;20019;-68
2023/05/18 06:30:58;;;;;;;0.38;0.38;;;;;;;20.89;40.34;101557.75;5126558;28;20407;-69
2023/05/18 06:33:23;;;;;;;0.45;0.40;;;;;;;20.55;38.99;101553.56;5126495;28;20048;-69
2023/05/18 06:35:50;;;;;;;0.68;0.68;;;;;;;20.20;39.57;101551.13;5126614;28;20031;-67
2023/05/18 06:38:15;;;;;;;0.20;0.20;;;;;;;20.21;39.72;101566.03;5107581;28;20028;-68
2023/05/18 06:40:40;;;;;;;1.40;0.85;;;;;;;19.78;39.78;101561.13;5126223;28;20399;-67
2023/05/18 06:43:07;;;;;;;0.20;0.20;;;;;;;19.24;40.00;101574.00;5126296;28;20053;-68
2023/05/18 06:45:32;;;;;;;0.20;0.20;;;;;;;18.86;42.41;101578.44;5126164;28;20020;-68
2023/05/18 06:47:58;;;;;;;0.63;0.63;;;;;;;19.25;42.44;101570.44;5126003;28;20046;-68
2023/05/18 06:50:23;;;;;;;0.20;0.20;;;;;;;19.78;42.47;101573.41;5126133;28;20035;-68
2023/05/18 06:52:48;;;;;;;0.25;0.25;;;;;;;20.13;41.17;101578.59;5125946;28;20051;-67
2023/05/18 06:55:14;;;;;;;0.20;0.20;;;;;;;19.87;40.96;101585.47;5107804;28;20039;-69
2023/05/18 06:57:40;;;;;;;0.38;0.38;;;;;;;19.51;40.80;101583.81;5126030;28;20079;-68
2023/05/18 07:00:06;;;;;;;0.20;0.20;;;;;;;19.03;41.13;101591.16;5125813;28;20027;-69
2023/05/18 07:02:31;;;;;;;0.20;0.20;;;;;;;18.53;42.09;101598.47;5107491;28;20047;-69
2023/05/18 07:04:57;;;;;;;0.30;0.30;;;;;;;18.62;42.68;101592.16;5125859;28;20032;-67
2023/05/18 07:07:22;;;;;;;0.20;0.20;;;;;;;19.00;42.25;101596.50;5125702;28;20031;-68
2023/05/18 07:09:48;;;;;;;0.30;0.30;;;;;;;19.48;41.80;101605.84;5125952;28;20034;-68
2023/05/18 07:12:14;;;;;;;2.60;0.65;;;;;;;20.04;41.83;101606.97;5125963;28;20024;-68
2023/05/18 07:14:39;;;;;;;0.20;0.20;;;;;;;20.58;40.76;101598.31;5125877;28;20102;-68
2023/05/18 07:17:06;;;;;;;0.20;0.20;;;;;;;21.14;38.79;101611.50;5125835;28;20444;-67
2023/05/18 07:19:33;;;;;;;0.20;0.20;;;;;;;21.22;38.67;101598.91;5107224;28;20055;-67
2023/05/18 07:21:59;;;;;;;0.30;0.30;;;;;;;20.90;38.40;101592.91;5125588;28;20055;-67
2023/05/18 07:24:24;;;;;;;0.20;0.20;;;;;;;20.84;38.79;101604.53;5125592;28;20463;-67
2023/05/18 07:26:50;;;;;;;0.20;0.20;;;;;;;20.90;38.77;101606.09;5125607;28;20035;-67
2023/05/18 07:29:15;;;;;;;0.20;0.20;;;;;;;21.04;38.34;101611.81;5125699;28;20402;-68
2023/05/18 07:31:41;;;;;;;0.20;0.20;;;;;;;21.58;38.33;101615.31;5125675;28;20583;-68
2023/05/18 07:34:07;;;;;;;0.20;0.20;;;;;;;21.96;37.66;101618.38;5125663;28;20046;-68
2023/05/18 07:36:33;;;;;;;0.20;0.20;;;;;;;22.13;36.37;101619.50;5125413;28;20045;-68
2023/05/18 07:38:59;;;;;;;0.77;0.77;;;;;;;21.95;35.71;101615.78;5107021;28;20387;-69
2023/05/18 07:41:26;;;;;;;0.20;0.20;;;;;;;21.72;36.04;101620.09;5125387;28;20051;-69
2023/05/18 07:43:52;;;;;;;0.20;0.20;;;;;;;22.00;36.42;101621.72;5125472;28;20073;-68
2023/05/18 07:46:18;;;;;;;0.20;0.20;;;;;;;22.03;35.49;101626.91;5125685;28;20032;-67
2023/05/18 07:48:44;;;;;;;0.20;0.20;;;;;;;22.01;35.23;101626.97;5125596;28;20060;-69
2023/05/18 07:51:10;;;;;;;0.20;0.20;;;;;;;22.12;35.13;101629.22;5125377;28;20027;-68
2023/05/18 07:53:36;;;;;;;0.20;0.20;;;;;;;22.10;34.99;101635.47;5125646;28;20024;-69
2023/05/18 07:56:02;;;;;;;0.20;0.20;;;;;;;21.98;34.92;101629.72;5125428;28;20039;-69
2023/05/18 07:58:28;;;;;;;0.25;0.25;;;;;;;22.23;35.07;101649.09;5125388;28;20046;-69
2023/05/18 08:00:53;;;;;;;0.20;0.20;;;;;;;22.23;35.06;101647.31;5125365;28;20019;-69
2023/05/18 08:03:20;;;;;;;0.20;0.20;;;;;;;22.35;34.18;101639.84;5125437;28;20089;-69
2023/05/18 08:05:45;;;;;;;0.43;0.43;;;;;;;22.53;33.79;101639.13;5125319;28;20028;-69
2023/05/18 08:08:14;;;;;;;0.20;0.20;;;;;;;22.52;33.17;101653.25;5124917;28;20023;-69
2023/05/18 08:10:40;;;;;;;0.75;0.75;;;;;;;22.57;34.14;101654.88;5125259;28;20061;-70
2023/05/18 08:13:06;;;;;;;0.20;0.20;;;;;;;22.84;33.20;101649.44;5110842;28;20024;-68
2023/05/18 08:15:31;;;;;;;0.20;0.20;;;;;;;22.92;34.13;101649.97;5129250;28;20020;-68
2023/05/18 08:17:57;;;;;;;0.20;0.20;;;;;;;23.07;33.04;101653.75;5128775;28;20494;-72
2023/05/18 08:20:24;;;;;;;0.10;0.10;;;;;;;22.85;33.52;101664.38;5129026;28;20024;-71
2023/05/18 08:22:49;;;;;;;0.13;0.13;;;;;;;23.00;34.29;101660.25;5110329;28;20065;-67
2023/05/18 08:25:15;;;;;;;0.20;0.20;;;;;;;23.27;32.25;101663.50;5129089;28;20076;-66
2023/05/18 08:27:40;;;;;;;0.20;0.20;;;;;;;23.25;32.49;101664.50;5110265;28;20019;-66
2023/05/18 08:30:07;;;;;;;0.20;0.20;;;;;;;23.18;31.74;101660.41;5128712;28;20031;-67
2023/05/18 08:32:35;;;;;;;1.45;1.10;;;;;;;23.39;32.22;101667.47;5128969;28;20024;-67
2023/05/18 08:35:03;;;;;;;0.20;0.20;;;;;;;23.62;31.84;101667.41;5129252;28;20027;-67
2023/05/18 08:37:29;;;;;;;0.10;0.10;;;;;;;24.07;31.38;101667.22;5128501;28;20020;-73
2023/05/18 08:39:56;;;;;;;0.20;0.20;;;;;;;24.41;30.56;101668.31;5109841;28;20514;-62
2023/05/18 08:42:27;;;;;;;0.20;0.20;;;;;;;24.75;31.14;101666.72;5128637;28;20060;-67
2023/05/18 08:45:15;;;;;;;0.10;0.10;;;;;;;24.88;30.86;101672.28;5128578;28;20024;-65
2023/05/18 08:47:40;;;;;;;0.20;0.20;;;;;;;25.24;30.30;101667.88;5128532;28;20023;-73
2023/05/18 08:50:06;;;;;;;0.10;0.10;;;;;;;25.12;29.40;101673.81;5128222;28;20046;-65
2023/05/18 08:52:36;;;;;;;0.10;0.10;;;;;;;25.14;29.82;101677.25;5128270;28;20019;-69
2023/05/18 08:55:06;;;;;;;0.13;0.13;;;;;;;25.31;30.07;101678.19;5128257;28;20019;-68
2023/05/18 08:57:34;;;;;;;0.10;0.10;;;;;;;25.44;29.90;101681.94;5109453;28;20451;-67
2023/05/18 09:00:01;;;;;;;0.10;0.10;;;;;;;25.55;29.75;101677.88;5109627;28;20032;-70
2023/05/18 09:02:27;;;;;;;0.10;0.10;;;;;;;25.50;28.95;101678.09;5128145;28;20023;-68
2023/05/18 09:04:55;;;;;;;0.22;0.22;;;;;;;25.36;29.24;101681.47;5128120;28;20076;-68
2023/05/18 09:07:22;;;;;;;0.20;0.20;;;;;;;25.40;29.23;101687.50;5127898;28;20027;-76
2023/05/18 09:09:48;;;;;;;0.10;0.10;;;;;;;25.29;29.41;101686.25;5128043;28;20024;-69
2023/05/18 09:12:18;;;;;;;0.10;0.10;;;;;;;25.19;29.82;101685.84;5128179;28;20023;-66
2023/05/18 09:14:45;;;;;;;0.20;0.20;;;;;;;25.15;29.65;101680.75;5127851;28;20024;-69
2023/05/18 09:17:10;;;;;;;0.10;0.10;;;;;;;25.29;28.96;101690.72;5127860;28;20027;-70
2023/05/18 09:19:36;;;;;;;0.10;0.10;;;;;;;25.19;29.11;101692.97;5127726;28;20031;-69
2023/05/18 11:17:45;;;;;;;0.20;0.20;;;;;;;16.45;42.61;101746.31;5102533;27;20386;-66
2023/05/18 11:20:11;;;;;;;0.20;0.20;;;;;;;16.58;43.35;101746.19;5102528;28;20161;-65
2023/05/18 11:22:58;;;;;;;0.20;0.20;;;;;;;16.58;42.84;101751.44;5102561;28;20025;-66
2023/05/18 11:25:26;;;;;;;0.60;0.60;;;;;;;16.41;43.20;101751.59;5102531;28;20024;-62
2023/05/18 11:28:00;;;;;;;0.20;0.20;;;;;;;16.35;43.48;101756.06;5102542;28;20032;-57
2023/05/18 11:30:27;;;;;;;0.20;0.20;;;;;;;16.29;43.55;101755.25;5102508;28;20079;-60
2023/05/18 11:33:10;;;;;;;0.30;0.30;;;;;;;16.29;43.48;101758.75;5102496;28;20107;-61
2023/05/18 11:35:57;;;;;;;0.20;0.20;;;;;;;16.24;43.30;101763.16;5102305;28;20250;-60
2023/05/18 11:38:44;;;;;;;0.20;0.20;;;;;;;16.24;42.82;101757.91;5101941;28;20388;-59
2023/05/18 11:41:28;;;;;;;0.20;0.20;;;;;;;16.28;41.69;101770.09;5102329;28;20023;-60
2023/05/18 11:44:11;;;;;;;0.20;0.20;;;;;;;16.21;40.19;101766.66;5102277;28;20111;-60
2023/05/18 11:46:49;;;;;;;0.20;0.20;;;;;;;16.03;40.33;101759.00;5101996;28;20471;-60
2023/05/18 11:49:16;;;;;;;0.20;0.20;;;;;;;15.95;39.17;101766.88;5102164;28;20067;-60
2023/05/18 11:52:00;;;;;;;0.20;0.20;;;;;;;15.83;39.09;101768.72;5102013;28;20081;-60
2023/05/18 11:54:26;;;;;;;0.20;0.20;;;;;;;15.80;38.94;101763.53;5102286;28;20021;-60
2023/05/18 11:56:52;;;;;;;0.20;0.20;;;;;;;15.93;39.07;101772.16;5101621;28;20107;-59
2023/05/18 11:59:30;;;;;;;0.20;0.20;;;;;;;16.02;38.63;101762.50;5101810;28;20024;-68
2023/05/18 12:01:58;;;;;;;0.20;0.20;;;;;;;16.12;38.59;101769.38;5101919;28;20101;-64
2023/05/18 12:04:25;;;;;;;0.30;0.30;;;;;;;16.15;38.26;101745.75;5101786;28;20050;-68
2023/05/18 12:06:51;;;;;;;0.20;0.20;;;;;;;16.45;38.12;101756.78;5101663;28;20020;-63
2023/05/18 12:09:18;;;;;;;0.20;0.20;;;;;;;16.57;35.67;101770.66;5101488;28;20063;-62
2023/05/18 12:11:44;;;;;;;0.20;0.20;;;;;;;16.62;34.70;101770.59;5101723;28;20039;-64
2023/05/18 12:14:10;;;;;;;0.20;0.20;;;;;;;16.71;34.29;101775.72;5101318;28;20460;-67
2023/05/18 12:16:37;;;;;;;0.20;0.20;;;;;;;16.78;33.97;101773.91;5101370;28;20044;-66
2023/05/18 12:19:03;;;;;;;0.20;0.20;;;;;;;16.77;33.36;101757.31;5101250;28;20167;-69
2023/05/18 12:21:28;;;;;;;0.20;0.20;;;;;;;16.96;33.05;101778.06;5101241;28;20024;-70
2023/05/18 12:23:59;;;;;;;0.20;0.20;;;;;;;17.02;33.64;101772.72;5101628;28;20035;-62
2023/05/18 12:26:27;;;;;;;0.30;0.30;;;;;;;16.92;33.08;101765.84;5101454;28;20016;-62
2023/05/18 12:28:53;;;;;;;0.20;0.20;;;;;;;16.82;33.29;101771.22;5089207;28;20028;-63
2023/05/18 12:31:19;;;;;;;0.30;0.30;;;;;;;16.79;32.80;101783.53;5087756;28;20016;-63
2023/05/18 12:33:45;;;;;;;0.20;0.20;;;;;;;16.70;33.25;101779.25;5087649;28;20024;-62
2023/05/18 12:36:12;;;;;;;0.20;0.20;;;;;;;16.68;31.77;101786.25;5087859;28;20031;-61
2023/05/18 12:38:38;;;;;;;0.20;0.20;;;;;;;16.60;32.07;101791.59;5087322;28;20443;-61
2023/05/18 12:41:05;;;;;;;0.30;0.30;;;;;;;16.59;31.88;101792.47;5087745;28;20523;-62
2023/05/18 12:43:37;;;;;;;0.20;0.20;;;;;;;16.63;32.67;101790.69;5087116;28;20021;-61
2023/05/18 12:46:04;;;;;;;0.30;0.30;;;;;;;16.64;32.85;101793.31;5087487;28;20020;-62
2023/05/18 12:48:45;;;;;;;0.35;0.35;;;;;;;16.69;32.31;101796.72;5087458;28;20079;-60
2023/05/18 12:51:18;;;;;;;0.20;0.20;;;;;;;16.67;32.02;101787.16;5087550;28;20055;-61
2023/05/18 12:53:43;;;;;;;0.20;0.20;;;;;;;16.69;32.31;101795.88;5087252;28;20052;-62
2023/05/18 12:56:10;;;;;;;0.30;0.30;;;;;;;16.62;32.77;101791.56;5086947;28;20024;-60
2023/05/18 12:58:36;;;;;;;0.20;0.20;;;;;;;16.52;32.87;101789.06;5087323;28;20024;-63
2023/05/18 13:01:09;;;;;;;0.20;0.20;;;;;;;16.48;33.01;101801.31;5087153;28;20202;-62
2023/05/18 13:03:37;;;;;;;0.30;0.30;;;;;;;16.35;33.11;101787.50;5086639;28;20027;-61
2023/05/18 13:06:05;;;;;;;0.20;0.20;;;;;;;16.38;32.85;101799.69;5086817;28;20036;-60
2023/05/18 13:08:32;;;;;;;0.30;0.30;;;;;;;16.30;32.58;101794.53;5086783;28;20025;-62
2023/05/18 13:11:05;;;;;;;0.40;0.40;;;;;;;16.23;31.77;101803.31;5085541;28;20063;-62
2023/05/18 13:13:31;;;;;;;0.20;0.20;;;;;;;16.13;32.14;101802.56;5087054;28;20173;-61
2023/05/18 13:16:00;;;;;;;0.30;0.30;;;;;;;16.18;32.75;101808.63;5086786;28;20378;-62
2023/05/18 13:18:26;;;;;;;0.20;0.20;;;;;;;16.17;32.66;101809.50;5086830;28;20061;-61
2023/05/18 13:20:56;;;;;;;0.30;0.30;;;;;;;16.13;31.58;101810.44;5086439;28;20028;-62
2023/05/18 13:23:25;;;;;;;0.73;0.52;;;;;;;16.06;31.91;101806.09;5086477;28;20035;-61
2023/05/18 13:25:51;;;;;;;0.30;0.30;;;;;;;15.91;32.41;101801.84;5086472;28;20448;-60